Latest Coastal Weather Observations for Weipa

IDQ60701

Issued at 10:31 pm EST Thursday 26 May 2016 (issued every 10 minutes, with the page automatically refreshed every 10 minutes)

About coastal observations | Map of coastal stations | Coastal observations for QLD | Marine services | Other Formats
Station Details ID: 027045 Name: WEIPA AERO Lat: -12.68 Lon: 141.92 Height: 17.96 m
Data from the previous 72 hours. | See also: Recent months at Weipa
Date/Time
EST
Temp

°C
Wind Pressure Rain
since 9am
mm
Weather Cloud Vis
km
Sea
Height
m
Swell
Dir
 
Speed
knots
Gust
knots
hPa Trend Height
m
Period
s
Dir
26/10:30pm 27.0 ESE 4 6 1013.4 - 0.0 - Partly cloudy 10 - - - -
26/10:00pm 27.3 CALM 0 0 1013.4 - 0.0 - Partly cloudy 10 - - - -
26/09:30pm 27.5 CALM 0 0 1013.3 - 0.0 - Partly cloudy 10 - - - -
26/09:00pm 27.8 NE 3 6 1013.0 - 0.0 - Cloudy 10 - - - -
26/08:30pm 27.6 N 4 7 1012.9 - 0.0 - Partly cloudy 10 - - - -
26/08:00pm 27.7 N 4 6 1012.6 - 0.0 - Partly cloudy 10 - - - -
26/07:30pm 27.0 CALM 0 2 1012.0 - 0.0 - Partly cloudy 10 - - - -
26/07:00pm 27.4 CALM 0 1 1011.3 - 0.0 - Partly cloudy 10 - - - -
26/06:30pm 28.1 CALM 0 2 1010.8 - 0.0 - - 10 - - - -
26/06:00pm 28.7 S 1 2 1010.3 - 0.0 - - 10 - - - -
26/05:30pm 29.1 NNE 5 7 1010.4 - 0.0 - Partly cloudy 9 - - - -
26/05:00pm 32.4 ESE 5 9 1010.2 - 0.0 - Partly cloudy 10 - - - -
26/04:30pm 32.4 ESE 5 10 1010.1 - 0.0 - - 10 - - - -
26/04:00pm 32.4 ESE 5 10 1010.1 - 0.0 - - 10 - - - -
26/03:30pm 32.7 SE 6 10 1010.4 - 0.0 - - 10 - - - -
26/03:00pm 32.3 ESE 7 11 1010.3 - 0.0 - - 10 - - - -
26/02:30pm 32.2 SE 6 11 1011.0 - 0.0 - Partly cloudy 10 - - - -
26/02:00pm 31.7 SE 5 10 1011.3 - 0.0 - - 10 - - - -
26/01:30pm 30.4 E 8 13 1011.8 - 0.0 - Partly cloudy 10 - - - -
26/01:00pm 31.3 ENE 7 12 1012.3 - 0.0 - Partly cloudy 10 - - - -
26/12:30pm 30.2 E 8 13 1012.9 - 0.0 - Partly cloudy 10 - - - -
26/12:00pm 30.4 ENE 9 13 1013.1 - 0.0 - Cloudy 10 - - - -
26/11:30am 29.8 E 9 15 1013.7 - 0.0 - Partly cloudy 10 - - - -
26/11:00am 30.5 E 9 14 1014.1 - 0.0 - Partly cloudy 10 - - - -
26/10:30am 29.3 E 8 12 1014.4 - 0.0 - Partly cloudy 10 - - - -
26/10:00am 28.4 ESE 8 11 1014.6 - 0.0 - Partly cloudy 10 - - - -
26/09:30am 27.8 E 7 11 1014.6 - 0.0 - - 10 - - - -
26/09:00am 27.0 ESE 6 10 1014.4 R 0.0 Haze Clear 30 - - - -
26/08:30am 25.9 ESE 4 6 1014.4 - 0.0 - - 10 - - - -
26/08:00am 24.6 SSE 2 4 1014.0 - 0.0 - - 10 - - - -
26/07:30am 23.4 CALM 0 0 1013.6 - 0.0 - - 10 - - - -
26/07:00am 22.7 CALM 0 0 1013.2 - 0.0 - - 10 - - - -
26/06:30am 22.6 CALM 0 0 1013.1 - 0.0 - - 10 - - - -
26/06:00am 22.7 CALM 0 0 1012.6 - 0.0 - - 10 - - - -
26/05:30am 22.8 CALM 0 0 1012.4 - 0.0 - - 10 - - - -
26/05:00am 22.9 CALM 0 0 1012.3 - 0.0 - - 10 - - - -
26/04:30am 23.1 CALM 0 0 1012.3 - 0.0 - - 10 - - - -
26/04:00am 23.1 CALM 0 0 1012.0 - 0.0 - - 10 - - - -
26/03:30am 23.2 CALM 0 0 1012.1 - 0.0 - - 10 - - - -
26/03:00am 23.4 CALM 0 0 1011.7 - 0.0 - - 10 - - - -
26/02:30am 23.6 CALM 0 0 1012.1 - 0.0 - - 10 - - - -
26/02:00am 23.7 CALM 0 0 1012.5 - 0.0 - - 10 - - - -
26/01:30am 23.9 CALM 0 0 1012.6 - 0.0 - - 10 - - - -
26/01:00am 24.3 CALM 0 0 1012.6 - 0.0 - - 10 - - - -
26/12:30am 24.4 ESE 2 3 1012.7 - 0.0 - - 10 - - - -
26/12:00am 25.0 E 2 3 1012.6 - 0.0 - - 10 - - - -
 
Date/Time
EST
Temp

°C
Wind Pressure Rain
since 9am
mm
Weather Cloud Vis
km
Sea
Height
m
Swell
Dir
 
Speed
knots
Gust
knots
hPa Trend Height
m
Period
s
Dir
25/11:30pm 25.1 E 3 5 1012.8 - 0.0 - - 10 - - - -
25/11:00pm 25.5 E 5 7 1013.0 - 0.0 - - 10 - - - -
25/10:30pm 25.8 E 6 8 1013.1 - 0.0 - - 10 - - - -
25/10:00pm 25.9 ESE 4 5 1013.0 - 0.0 - Partly cloudy 10 - - - -
25/09:30pm 25.8 ESE 3 4 1012.9 - 0.0 - Partly cloudy 10 - - - -
25/09:00pm 26.0 ESE 3 4 1012.6 - 0.0 - - 10 - - - -
25/08:30pm 26.3 E 3 4 1012.4 - 0.0 - - 10 - - - -
25/08:00pm 26.5 ESE 2 3 1012.1 - 0.0 - - 10 - - - -
25/07:30pm 27.0 ESE 3 4 1011.7 - 0.0 - - 10 - - - -
25/07:00pm 27.5 E 3 5 1011.3 - 0.0 - - 10 - - - -
25/06:30pm 28.0 E 5 8 1011.1 - 0.0 - - 10 - - - -
25/06:00pm 28.8 E 6 10 1010.6 - 0.0 - - 10 - - - -
25/05:30pm 29.5 E 5 7 1010.3 - 0.0 - - 10 - - - -
25/05:00pm 29.4 E 5 9 1010.1 - 0.0 - - 10 - - - -
25/04:30pm 29.6 E 7 11 1010.1 - 0.0 - - 10 - - - -
25/04:00pm 30.1 E 8 13 1009.9 - 0.0 - - 10 - - - -
25/03:30pm 30.6 E 8 12 1009.8 - 0.0 - Partly cloudy 10 - - - -
25/03:00pm 31.4 ENE 8 13 1009.9 - 0.0 - Partly cloudy 10 - - - -
25/02:30pm 31.4 E 8 12 1010.2 - 0.0 - Partly cloudy 10 - - - -
25/02:00pm 31.6 E 5 9 1010.6 - 0.0 - Partly cloudy 10 - - - -
25/01:30pm 31.2 ENE 7 12 1011.2 - 0.0 - Partly cloudy 10 - - - -
25/01:00pm 31.5 E 7 12 1011.8 - 0.0 - Partly cloudy 10 - - - -
25/12:30pm 30.3 ESE 9 13 1012.4 - 0.0 - Partly cloudy 10 - - - -
25/12:00pm 30.8 E 10 17 1012.4 - 0.0 - Partly cloudy 10 - - - -
25/11:30am 29.8 E 10 14 1013.0 - 0.0 - Partly cloudy 10 - - - -
25/11:00am 29.3 ESE 12 16 1013.2 - 0.0 - - 10 - - - -
25/10:30am 28.0 ESE 10 14 1013.5 - 0.0 - Partly cloudy 10 - - - -
25/10:00am 27.1 E 11 15 1013.4 - 0.0 - Partly cloudy 10 - - - -
25/09:30am 27.3 E 8 13 1013.4 - 0.0 - - 10 - - - -
25/09:00am 26.4 E 8 15 1012.9 R 0.0 Haze Partly cloudy 30 - - - -
25/08:30am 25.2 ESE 7 8 1012.8 - 0.0 - - 10 - - - -
25/08:00am 24.6 SE 4 5 1012.8 - 0.0 - Cloudy 10 - - - -
25/07:30am 24.1 SSE 2 3 1012.6 - 0.0 - Partly cloudy 10 - - - -
25/07:00am 23.3 SE 3 5 1012.2 - 0.0 - - 10 - - - -
25/06:30am 23.3 SE 3 6 1011.8 - 0.0 - Partly cloudy 10 - - - -
25/06:00am 23.3 SE 4 5 1011.3 - 0.0 - - 10 - - - -
25/05:30am 23.4 ESE 5 8 1011.1 - 0.0 - - 10 - - - -
25/05:00am 23.4 ESE 5 6 1011.2 - 0.0 - - 10 - - - -
25/04:30am 23.5 SE 3 5 1011.2 - 0.0 - - 10 - - - -
25/04:00am 23.8 E 3 5 1011.1 - 0.0 - - 10 - - - -
25/03:30am 23.8 SE 4 6 1011.3 - 0.0 - - 10 - - - -
25/03:00am 24.1 ESE 5 6 1011.4 - 0.0 - Mostly clear 10 - - - -
25/02:30am 24.0 ESE 3 4 1011.9 - 0.0 - - 10 - - - -
25/02:00am 24.2 SE 3 4 1012.3 - 0.0 - - 10 - - - -
25/01:30am 24.4 E 3 4 1012.4 - 0.0 - - 10 - - - -
25/01:00am 24.5 ESE 3 5 1012.7 - 0.0 - - 10 - - - -
25/12:30am 24.8 E 3 5 1012.8 - 0.0 - - 10 - - - -
25/12:00am 24.8 E 3 4 1012.7 - 0.0 - - 10 - - - -
 
Date/Time
EST
Temp

°C
Wind Pressure Rain
since 9am
mm
Weather Cloud Vis
km
Sea
Height
m
Swell
Dir
 
Speed
knots
Gust
knots
hPa Trend Height
m
Period
s
Dir
24/11:30pm 24.7 SE 3 4 1013.5 - 0.0 - - 10 - - - -
24/11:00pm 25.4 ENE 2 3 1013.6 - 0.0 - - 10 - - - -
24/10:30pm 25.5 E 4 6 1013.4 - 0.0 - - 10 - - - -
24/10:00pm 26.0 E 4 6 1013.5 - 0.0 - Partly cloudy 10 - - - -
24/09:30pm 26.4 E 7 9 1013.2 - 0.0 - Partly cloudy 10 - - - -
24/09:00pm 26.4 E 7 10 1012.7 - 0.0 - Mostly cloudy 10 - - - -
24/08:30pm 26.9 E 8 13 1012.7 - 0.0 - Cloudy 10 - - - -
24/08:00pm 27.1 ESE 7 10 1012.6 - 0.0 - Cloudy 10 - - - -
24/07:30pm 27.3 ESE 7 9 1012.0 - 0.0 - Partly cloudy 10 - - - -
24/07:00pm 27.6 ESE 5 8 1011.4 - 0.0 - Cloudy 10 - - - -
24/06:30pm 28.0 SE 4 5 1010.9 - 0.0 - Partly cloudy 10 - - - -
24/06:00pm 28.6 E 3 5 1010.1 - 0.0 - - 10 - - - -
24/05:30pm 29.2 E 7 10 1009.7 - 0.0 - - 10 - - - -
24/05:00pm 29.4 E 7 11 1009.5 - 0.0 - - 10 - - - -
24/04:30pm 29.9 E 7 11 1009.3 - 0.0 - - 10 - - - -
24/04:00pm 30.2 E 9 12 1009.5 - 0.0 - - 10 - - - -
24/03:30pm 30.0 E 6 9 1009.9 - 0.0 - Partly cloudy 10 - - - -
24/03:00pm 30.8 E 10 14 1009.8 - 0.0 - - 10 - - - -
24/02:30pm 30.4 ENE 10 14 1010.3 - 0.0 - Partly cloudy 10 - - - -
24/02:00pm 30.5 E 10 14 1010.4 - 0.0 - Partly cloudy 10 - - - -
24/01:30pm 30.3 E 10 14 1011.1 - 0.0 - Partly cloudy 10 - - - -
24/01:00pm 30.9 E 12 17 1011.7 - 0.0 - Partly cloudy 10 - - - -
24/12:30pm 30.3 E 12 17 1012.2 - 0.0 - Partly cloudy 10 - - - -
24/12:00pm 30.1 E 11 15 1012.3 - 0.0 - Partly cloudy 10 - - - -
24/11:30am 29.9 E 10 15 1013.1 - 0.0 - Partly cloudy 10 - - - -
24/11:00am 29.2 E 11 18 1013.7 - 0.0 - Partly cloudy 10 - - - -
24/10:30am 28.6 E 10 15 1013.8 - 0.0 - Partly cloudy 10 - - - -
24/10:00am 27.5 E 10 14 1013.6 - 0.0 - Partly cloudy 10 - - - -
24/09:30am 26.8 E 7 11 1013.6 - 0.0 - Partly cloudy 10 - - - -
24/09:00am 25.4 E 7 9 1013.2 R 3.6 Haze Partly cloudy 30 - - - -
24/08:30am 24.7 E 6 11 1013.0 - 3.6 - - 10 - - - -
24/08:00am 24.2 E 3 5 1012.8 - 3.6 - - 10 - - - -
24/07:30am 23.8 ESE 3 5 1012.4 - 3.6 - - 10 - - - -
24/07:00am 23.7 E 4 6 1012.1 - 3.6 - - 10 - - - -
24/06:30am 23.8 ESE 5 7 1012.0 - 3.6 - Partly cloudy 10 - - - -
24/06:00am 23.9 ESE 5 7 1011.8 - 3.6 - Partly cloudy 10 - - - -
24/05:33am 23.9 E 6 8 1011.6 - 3.6 - Partly cloudy 10 - - - -
24/05:30am 23.9 E 6 8 1011.5 - 3.6 - Partly cloudy 10 - - - -
24/05:00am 23.8 SE 4 6 1011.5 - 3.6 - Cloudy 10 - - - -
24/04:54am 23.7 SE 4 6 1011.3 - 3.6 - Cloudy 10 - - - -
24/04:30am 23.5 ESE 9 12 1011.0 - 3.6 - Partly cloudy 10 - - - -
24/04:00am 23.4 ESE 6 8 1011.2 - 3.6 - Partly cloudy 10 - - - -
24/03:30am 23.3 ESE 4 5 1011.4 - 3.6 - - 10 - - - -
24/03:00am 23.3 SE 3 4 1011.4 - 3.6 - - 10 - - - -
24/02:30am 23.3 SE 3 4 1011.9 - 3.6 - - 10 - - - -
24/02:00am 23.3 ESE 3 3 1012.1 - 3.6 - - 10 - - - -
24/01:30am 23.4 SE 2 3 1012.2 - 3.6 - - 10 - - - -
24/01:00am 23.6 E 2 3 1012.3 - 3.6 - - 10 - - - -
24/12:30am 23.7 ESE 4 5 1012.3 - 3.6 - - 10 - - - -
24/12:00am 23.9 ESE 4 5 1012.2 - 3.6 - - 10 - - - -
 
Date/Time
EST
Temp

°C
Wind Pressure Rain
since 9am
mm
Weather Cloud Vis
km
Sea
Height
m
Swell
Dir
 
Speed
knots
Gust
knots
hPa Trend Height
m
Period
s
Dir
23/11:30pm 24.1 E 5 6 1012.5 - 3.6 - - 10 - - - -
23/11:00pm 24.2 E 5 7 1012.7 - 3.6 - - 10 - - - -

Other Formats:

Comma delimited format used in spreadsheet applications
http://www.bom.gov.au/fwo/IDQ60701/IDQ60701.94170.axf

JavaScript Object Notation format (JSON) in row-major order
http://www.bom.gov.au/fwo/IDQ60701/IDQ60701.94170.json